Observation data for Denver City on 01/22/2019      Previous  Date  Next       Current Mesonet Observations  Soil Data  Daily Summary Page  Observations in Plain Language
KDVS 220600Z 19014G22KT 09/M01 A2967 RMK A01 T00851005  RH  054%=      5-min Rain = 0
KDVS 220605Z 19014KT 09/M00 A2967 RMK A01 T00851004  RH  054%=      5-min Rain = 0
KDVS 220610Z 19014KT 09/M00 A2967 RMK A01 T00851002  RH  055%=      5-min Rain = 0
KDVS 220615Z 19014KT 08/M00 A2967 RMK A01 T00841001  RH  056%=      5-min Rain = 0
KDVS 220620Z 19016KT 08/00 A2967 RMK A01 T008400-0  RH  056%=      5-min Rain = 0
KDVS 220625Z 19014KT 08/00 A2967 RMK A01 T00830000  RH  057%=      5-min Rain = 0
KDVS 220630Z 19014KT 08/00 A2967 RMK A01 T00820001  RH  057%=      5-min Rain = 0
KDVS 220635Z 19013KT 08/00 A2967 RMK A01 T00800002  RH  058%=      5-min Rain = 0
KDVS 220640Z 19012KT 08/00 A2967 RMK A01 T00790002  RH  059%=      5-min Rain = 0
KDVS 220645Z 19013KT 08/00 A2967 RMK A01 T00780003  RH  060%=      5-min Rain = 0
KDVS 220650Z 19013KT 08/00 A2967 RMK A01 T00780003  RH  060%=      5-min Rain = 0
KDVS 220655Z 19013G18KT 08/00 A2967 RMK A01 T00760004  RH  061%=      5-min Rain = 0
KDVS 220700Z 19013KT 08/01 A2968 RMK A01 T00760005  RH  061%=      5-min Rain = 0
KDVS 220705Z 19013KT 08/01 A2968 RMK A01 T00750005  RH  062%=      5-min Rain = 0
KDVS 220710Z 20012KT 07/01 A2968 RMK A01 T00740006  RH  063%=      5-min Rain = 0
KDVS 220715Z 20011KT 07/01 A2968 RMK A01 T00720005  RH  064%=      5-min Rain = 0
KDVS 220720Z 20011KT 07/01 A2968 RMK A01 T00700006  RH  064%=      5-min Rain = 0
KDVS 220725Z 20010KT 07/01 A2968 RMK A01 T00690006  RH  065%=      5-min Rain = 0
KDVS 220730Z 20009KT 07/01 A2968 RMK A01 T00670006  RH  066%=      5-min Rain = 0
KDVS 220735Z 20009KT 07/01 A2968 RMK A01 T00660006  RH  066%=      5-min Rain = 0
KDVS 220740Z 21008KT 07/01 A2968 RMK A01 T00650006  RH  067%=      5-min Rain = 0
KDVS 220745Z 21007KT 06/01 A2968 RMK A01 T00630005  RH  067%=      5-min Rain = 0
KDVS 220750Z 21008KT 06/01 A2968 RMK A01 T00610005  RH  068%=      5-min Rain = 0
KDVS 220755Z 20009KT 06/01 A2968 RMK A01 T00600006  RH  069%=      5-min Rain = 0
KDVS 220800Z 20008KT 06/01 A2968 RMK A01 T00600006  RH  069%=      5-min Rain = 0
KDVS 220805Z 20008KT 06/01 A2968 RMK A01 T00590006  RH  070%=      5-min Rain = 0
KDVS 220810Z 20008KT 06/01 A2968 RMK A01 T00570006  RH  071%=      5-min Rain = 0
KDVS 220815Z 21008KT 06/01 A2969 RMK A01 T00560006  RH  071%=      5-min Rain = 0
KDVS 220820Z 21009KT 06/01 A2969 RMK A01 T00560008  RH  072%=      5-min Rain = 0
KDVS 220825Z 21008KT 06/01 A2969 RMK A01 T00560008  RH  072%=      5-min Rain = 0
KDVS 220830Z 21008KT 05/01 A2969 RMK A01 T00540008  RH  073%=      5-min Rain = 0
KDVS 220835Z 21009KT 05/01 A2969 RMK A01 T00530008  RH  074%=      5-min Rain = 0
KDVS 220840Z 20009KT 05/01 A2968 RMK A01 T00520008  RH  074%=      5-min Rain = 0
KDVS 220845Z 20009KT 05/01 A2968 RMK A01 T00500008  RH  075%=      5-min Rain = 0
KDVS 220850Z 20008KT 05/01 A2968 RMK A01 T00490007  RH  075%=      5-min Rain = 0
KDVS 220855Z 20008KT 05/01 A2968 RMK A01 T00480007  RH  076%=      5-min Rain = 0
KDVS 220900Z 21008KT 05/01 A2968 RMK A01 T00470007  RH  076%=      5-min Rain = 0
KDVS 220905Z 20008KT 04/01 A2969 RMK A01 T00440005  RH  077%=      5-min Rain = 0
KDVS 220910Z 21009KT 04/01 A2969 RMK A01 T00430007  RH  078%=      5-min Rain = 0
KDVS 220915Z 21008KT 04/01 A2968 RMK A01 T00430006  RH  078%=      5-min Rain = 0
KDVS 220920Z 22008KT 04/01 A2969 RMK A01 T00430006  RH  078%=      5-min Rain = 0
KDVS 220925Z 23008KT 04/01 A2969 RMK A01 T00410005  RH  079%=      5-min Rain = 0
KDVS 220930Z 22008KT 04/01 A2969 RMK A01 T00390005  RH  079%=      5-min Rain = 0
KDVS 220935Z 22009KT 04/01 A2968 RMK A01 T00380005  RH  080%=      5-min Rain = 0
KDVS 220940Z 21009KT 04/01 A2968 RMK A01 T00400007  RH  080%=      5-min Rain = 0
KDVS 220945Z 22009KT 04/01 A2968 RMK A01 T00400006  RH  080%=      5-min Rain = 0
KDVS 220950Z 21011KT 04/01 A2968 RMK A01 T00390007  RH  080%=      5-min Rain = 0
KDVS 220955Z 23010KT 04/01 A2968 RMK A01 T00410007  RH  080%=      5-min Rain = 0
KDVS 221000Z 22010KT 04/01 A2968 RMK A01 T00440008  RH  079%=      5-min Rain = 0
KDVS 221005Z 23010KT 04/01 A2968 RMK A01 T00420006  RH  078%=      5-min Rain = 0
KDVS 221010Z 31014G22KT 04/01 A2971 RMK A01 T00430007  RH  079%=      5-min Rain = 0
KDVS 221015Z 28012G19KT 06/01 A2971 RMK A01 T00570010  RH  073%=      5-min Rain = 0
KDVS 221020Z 27009KT 06/01 A2971 RMK A01 T00570006  RH  070%=      5-min Rain = 0
KDVS 221025Z 28008KT 06/00 A2971 RMK A01 T00550003  RH  070%=      5-min Rain = 0
KDVS 221030Z 28008KT 05/00 A2971 RMK A01 T00500001  RH  071%=      5-min Rain = 0
KDVS 221035Z 28008KT 05/M00 A2971 RMK A01 T00471001  RH  072%=      5-min Rain = 0
KDVS 221040Z 27007KT 04/M00 A2971 RMK A01 T00431002  RH  073%=      5-min Rain = 0
KDVS 221045Z 27007KT 04/M00 A2971 RMK A01 T00411003  RH  074%=      5-min Rain = 0
KDVS 221050Z 27007KT 04/M00 A2971 RMK A01 T00401002  RH  075%=      5-min Rain = 0
KDVS 221055Z 28007KT 04/M00 A2971 RMK A01 T00391004  RH  075%=      5-min Rain = 0
KDVS 221100Z 28005KT 03/M01 A2971 RMK A01 T00341006  RH  075%=      5-min Rain = 0
KDVS 221105Z 27006KT 03/M01 A2971 RMK A01 T00321007  RH  076%=      5-min Rain = 0
KDVS 221110Z 28007KT 03/M01 A2971 RMK A01 T00301009  RH  077%=      5-min Rain = 0
KDVS 221115Z 29008KT 02/M01 A2971 RMK A01 T00241012  RH  077%=      5-min Rain = 0
KDVS 221120Z 30008KT 02/M02 A2971 RMK A01 T00181016  RH  079%=      5-min Rain = 0
KDVS 221125Z 30007KT 02/M02 A2972 RMK A01 T00151016  RH  081%=      5-min Rain = 0
KDVS 221130Z 31007KT 01/M02 A2972 RMK A01 T00141016  RH  081%=      5-min Rain = 0
KDVS 221135Z 32007KT 01/M02 A2972 RMK A01 T00141017  RH  080%=      5-min Rain = 0
KDVS 221140Z 33007KT 02/M02 A2972 RMK A01 T00161018  RH  079%=      5-min Rain = 0
KDVS 221145Z 33006KT 02/M02 A2972 RMK A01 T00171019  RH  077%=      5-min Rain = 0
KDVS 221150Z 33005KT 02/M02 A2972 RMK A01 T00191021  RH  075%=      5-min Rain = 0
KDVS 221155Z 34005KT 02/M02 A2972 RMK A01 T00191024  RH  074%=      5-min Rain = 0
KDVS 221200Z 34005KT 02/M03 A2973 RMK A01 T00181028  RH  072%=      5-min Rain = 0
KDVS 221205Z 33004KT 02/M03 A2973 RMK A01 T00161030  RH  072%=      5-min Rain = 0
KDVS 221210Z 34004KT 02/M03 A2973 RMK A01 T00151031  RH  072%=      5-min Rain = 0
KDVS 221215Z 33004KT 02/M03 A2973 RMK A01 T00171031  RH  071%=      5-min Rain = 0
KDVS 221220Z 33004KT 02/M03 A2973 RMK A01 T00211032  RH  068%=      5-min Rain = 0
KDVS 221225Z 34003KT 02/M03 A2973 RMK A01 T00201033  RH  068%=      5-min Rain = 0
KDVS 221230Z 35003KT 02/M03 A2973 RMK A01 T00191034  RH  068%=      5-min Rain = 0
KDVS 221235Z 36002KT 02/M03 A2974 RMK A01 T00191034  RH  069%=      5-min Rain = 0
KDVS 221240Z 35003KT 02/M03 A2974 RMK A01 T00171034  RH  069%=      5-min Rain = 0
KDVS 221245Z 35004KT 02/M03 A2974 RMK A01 T00171034  RH  069%=      5-min Rain = 0
KDVS 221250Z 35004KT 02/M04 A2974 RMK A01 T00181035  RH  068%=      5-min Rain = 0
KDVS 221255Z 34004KT 02/M04 A2974 RMK A01 T00181036  RH  068%=      5-min Rain = 0
KDVS 221300Z 35004KT 02/M04 A2974 RMK A01 T00171037  RH  068%=      5-min Rain = 0
KDVS 221305Z 35004KT 02/M04 A2974 RMK A01 T00151038  RH  068%=      5-min Rain = 0
KDVS 221310Z 35005KT 01/M04 A2974 RMK A01 T00121039  RH  069%=      5-min Rain = 0
KDVS 221315Z 00003KT 01/M04 A2975 RMK A01 T00081041  RH  070%=      5-min Rain = 0
KDVS 221320Z 01003KT 01/M04 A2975 RMK A01 T00051040  RH  072%=      5-min Rain = 0
KDVS 221325Z 04002KT 00/M04 A2975 RMK A01 T00011043  RH  073%=      5-min Rain = 0
KDVS 221330Z 09002KT M01/M04 A2975 RMK A01 T10051043  RH  076%=      5-min Rain = 0
KDVS 221335Z 08002KT M01/M04 A2975 RMK A01 T10071042  RH  077%=      5-min Rain = 0
KDVS 221340Z 04002KT M00/M04 A2976 RMK A01 T10041038  RH  079%=      5-min Rain = 0
KDVS 221345Z 36002KT 00/M03 A2976 RMK A01 T00011034  RH  078%=      5-min Rain = 0
KDVS 221350Z 34004KT 01/M04 A2976 RMK A01 T00101035  RH  072%=      5-min Rain = 0
KDVS 221355Z 33005KT 01/M04 A2977 RMK A01 T00121039  RH  069%=      5-min Rain = 0
KDVS 221400Z 33005KT 01/M04 A2977 RMK A01 T00131041  RH  068%=      5-min Rain = 0
KDVS 221405Z 33005KT 01/M04 A2978 RMK A01 T00091041  RH  069%=      5-min Rain = 0
KDVS 221410Z 32005KT 01/M04 A2978 RMK A01 T00071043  RH  070%=      5-min Rain = 0
KDVS 221415Z 32006KT 01/M04 A2978 RMK A01 T00061041  RH  071%=      5-min Rain = 0
KDVS 221420Z 32007KT 01/M04 A2978 RMK A01 T00071042  RH  070%=      5-min Rain = 0
KDVS 221425Z 32008KT 01/M04 A2978 RMK A01 T00091040  RH  070%=      5-min Rain = 0
KDVS 221430Z 32007KT 01/M04 A2979 RMK A01 T00121039  RH  069%=      5-min Rain = 0
KDVS 221435Z 32007KT 01/M04 A2979 RMK A01 T00141036  RH  070%=      5-min Rain = 0
KDVS 221440Z 31007KT 02/M03 A2979 RMK A01 T00201033  RH  068%=      5-min Rain = 0
KDVS 221445Z 32006KT 03/M03 A2979 RMK A01 T00271032  RH  065%=      5-min Rain = 0
KDVS 221450Z 31006KT 03/M03 A2979 RMK A01 T00341032  RH  062%=      5-min Rain = 0
KDVS 221455Z 30006KT 04/M03 A2979 RMK A01 T00391033  RH  060%=      5-min Rain = 0
KDVS 221500Z 30007KT 04/M03 A2979 RMK A01 T00411034  RH  058%=      5-min Rain = 0
KDVS 221505Z 30007KT 04/M04 A298 RMK A01 T00431035  RH  057%=      5-min Rain = 0
KDVS 221510Z 30008KT 05/M03 A298 RMK A01 T00451034  RH  057%=      5-min Rain = 0
KDVS 221515Z 30009KT 05/M04 A298 RMK A01 T00491036  RH  054%=      5-min Rain = 0
KDVS 221520Z 31009KT 05/M04 A298 RMK A01 T00541037  RH  052%=      5-min Rain = 0
KDVS 221525Z 31010KT 06/M04 A298 RMK A01 T00591039  RH  050%=      5-min Rain = 0
KDVS 221530Z 31011KT 07/M04 A2981 RMK A01 T00651042  RH  047%=      5-min Rain = 0
KDVS 221535Z 31014KT 07/M05 A2981 RMK A01 T00681052  RH  042%=      5-min Rain = 0
KDVS 221540Z 32013KT 07/M06 A2981 RMK A01 T00721057  RH  040%=      5-min Rain = 0
KDVS 221545Z 32014G19KT 07/M06 A2981 RMK A01 T00731061  RH  038%=      5-min Rain = 0
KDVS 221550Z 32015KT 08/M07 A2981 RMK A01 T00751065  RH  036%=      5-min Rain = 0
KDVS 221555Z 32014G19KT 07/M06 A2982 RMK A01 T00741064  RH  037%=      5-min Rain = 0
KDVS 221600Z 32014KT 08/M07 A2982 RMK A01 T00751069  RH  035%=      5-min Rain = 0
KDVS 221605Z 32012KT 08/M07 A2982 RMK A01 T00751069  RH  035%=      5-min Rain = 0
KDVS 221610Z 32013KT 07/M07 A2982 RMK A01 T00741071  RH  035%=      5-min Rain = 0
KDVS 221615Z 32012KT 07/M07 A2982 RMK A01 T00731072  RH  035%=      5-min Rain = 0
KDVS 221620Z 32012KT 07/M07 A2983 RMK A01 T00731072  RH  035%=      5-min Rain = 0
KDVS 221625Z 32013KT 07/M07 A2983 RMK A01 T00721071  RH  035%=      5-min Rain = 0
KDVS 221630Z 31012KT 07/M07 A2984 RMK A01 T00731068  RH  036%=      5-min Rain = 0
KDVS 221635Z 31013KT 08/M07 A2984 RMK A01 T00761073  RH  034%=      5-min Rain = 0
KDVS 221640Z 31014G21KT 08/M08 A2984 RMK A01 T00791078  RH  032%=      5-min Rain = 0
KDVS 221645Z 31019G24KT 08/M09 A2984 RMK A01 T00821091  RH  028%=      5-min Rain = 0
KDVS 221650Z 32020KT 08/M10 A2984 RMK A01 T00821095  RH  027%=      5-min Rain = 0
KDVS 221655Z 31019G24KT 08/M09 A2984 RMK A01 T00821092  RH  028%=      5-min Rain = 0
KDVS 221700Z 32019G25KT 08/M09 A2985 RMK A01 T00821090  RH  028%=      5-min Rain = 0
KDVS 221705Z 32021KT 08/M09 A2985 RMK A01 T00821089  RH  029%=      5-min Rain = 0
KDVS 221710Z 32019G24KT 08/M09 A2986 RMK A01 T00811087  RH  029%=      5-min Rain = 0
KDVS 221715Z 32019G24KT 08/M09 A2986 RMK A01 T00811087  RH  029%=      5-min Rain = 0
KDVS 221720Z 33016G25KT 08/M09 A2986 RMK A01 T00821085  RH  029%=      5-min Rain = 0
KDVS 221725Z 32020G26KT 08/M09 A2987 RMK A01 T00821088  RH  029%=      5-min Rain = 0
KDVS 221730Z 32016KT 08/M09 A2987 RMK A01 T00821088  RH  029%=      5-min Rain = 0
KDVS 221735Z 32016G21KT 09/M09 A2987 RMK A01 T00851087  RH  029%=      5-min Rain = 0
KDVS 221740Z 34016G22KT 09/M09 A2987 RMK A01 T00861087  RH  028%=      5-min Rain = 0
KDVS 221745Z 33017KT 09/M09 A2987 RMK A01 T00851087  RH  029%=      5-min Rain = 0
KDVS 221750Z 33015G21KT 09/M09 A2987 RMK A01 T00871086  RH  028%=      5-min Rain = 0
KDVS 221755Z 34018G26KT 09/M09 A2987 RMK A01 T00861085  RH  029%=      5-min Rain = 0
KDVS 221800Z 02022G28KT 07/M05 A2988 RMK A01 T00711052  RH  042%=      5-min Rain = 0
KDVS 221805Z 02020G26KT 06/M04 A2989 RMK A01 T00561044  RH  049%=      5-min Rain = 0
KDVS 221810Z 02018G23KT 06/M04 A299 RMK A01 T00551043  RH  050%=      5-min Rain = 0
KDVS 221815Z 01018G24KT 06/M04 A299 RMK A01 T00581043  RH  048%=      5-min Rain = 0
KDVS 221820Z 02019G25KT 06/M04 A299 RMK A01 T00591039  RH  050%=      5-min Rain = 0
KDVS 221825Z 01021G28KT 06/M04 A299 RMK A01 T00611037  RH  050%=      5-min Rain = 0
KDVS 221830Z 02021G27KT 05/M04 A299 RMK A01 T00521038  RH  052%=      5-min Rain = 0
KDVS 221835Z 02017G24KT 05/M04 A2991 RMK A01 T00521036  RH  053%=      5-min Rain = 0
KDVS 221840Z 00020G25KT 06/M04 A2991 RMK A01 T00621039  RH  048%=      5-min Rain = 0
KDVS 221845Z 36019G26KT 06/M04 A2991 RMK A01 T00641044  RH  046%=      5-min Rain = 0
KDVS 221850Z 36023G31KT 06/M05 A2991 RMK A01 T00631047  RH  046%=      5-min Rain = 0
KDVS 221855Z 36022G31KT 06/M05 A2992 RMK A01 T00581050  RH  046%=      5-min Rain = 0
KDVS 221900Z 36023G31KT 06/M05 A2992 RMK A01 T00561054  RH  045%=      5-min Rain = 0
KDVS 221905Z 36020G26KT 05/M06 A2993 RMK A01 T00541056  RH  045%=      5-min Rain = 0
KDVS 221910Z 36020G28KT 06/M06 A2993 RMK A01 T00571058  RH  043%=      5-min Rain = 0
KDVS 221915Z 36022G29KT 06/M06 A2993 RMK A01 T00561058  RH  044%=      5-min Rain = 0
KDVS 221920Z 00022G29KT 06/M06 A2993 RMK A01 T00571057  RH  044%=      5-min Rain = 0
KDVS 221925Z 00021G29KT 05/M06 A2993 RMK A01 T00541057  RH  045%=      5-min Rain = 0
KDVS 221930Z 00021G28KT 05/M06 A2994 RMK A01 T00531057  RH  045%=      5-min Rain = 0
KDVS 221935Z 36022G28KT 05/M06 A2994 RMK A01 T00501058  RH  046%=      5-min Rain = 0
KDVS 221940Z 01022G27KT 05/M06 A2994 RMK A01 T00491059  RH  045%=      5-min Rain = 0
KDVS 221945Z 01021G30KT 05/M06 A2994 RMK A01 T00491060  RH  045%=      5-min Rain = 0
KDVS 221950Z 01021G28KT 05/M06 A2994 RMK A01 T00501063  RH  044%=      5-min Rain = 0
KDVS 221955Z 00021G28KT 05/M06 A2994 RMK A01 T00511064  RH  043%=      5-min Rain = 0
KDVS 222000Z 01019G25KT 05/M07 A2994 RMK A01 T00541066  RH  042%=      5-min Rain = 0
KDVS 222005Z 01021G27KT 06/M07 A2994 RMK A01 T00561069  RH  040%=      5-min Rain = 0
KDVS 222010Z 00021G29KT 06/M07 A2994 RMK A01 T00561073  RH  039%=      5-min Rain = 0
KDVS 222015Z 36020G27KT 06/M08 A2994 RMK A01 T00551075  RH  038%=      5-min Rain = 0
KDVS 222020Z 00020G25KT 06/M08 A2995 RMK A01 T00581079  RH  037%=      5-min Rain = 0
KDVS 222025Z 00016G24KT 06/M08 A2995 RMK A01 T00621080  RH  035%=      5-min Rain = 0
KDVS 222030Z 01019G25KT 06/M08 A2995 RMK A01 T00641081  RH  035%=      5-min Rain = 0
KDVS 222035Z 00020G29KT 06/M08 A2996 RMK A01 T00631082  RH  035%=      5-min Rain = 0
KDVS 222040Z 00020G26KT 06/M08 A2996 RMK A01 T00611081  RH  035%=      5-min Rain = 0
KDVS 222045Z 01019KT 06/M08 A2996 RMK A01 T00631081  RH  035%=      5-min Rain = 0
KDVS 222050Z 35019G26KT 06/M08 A2996 RMK A01 T00641084  RH  034%=      5-min Rain = 0
KDVS 222055Z 35020G25KT 06/M09 A2996 RMK A01 T00611086  RH  034%=      5-min Rain = 0
KDVS 222100Z 34019G29KT 06/M09 A2997 RMK A01 T00611088  RH  033%=      5-min Rain = 0
KDVS 222105Z 35018G25KT 06/M09 A2998 RMK A01 T00581091  RH  033%=      5-min Rain = 0
KDVS 222110Z 34021G31KT 06/M09 A2998 RMK A01 T00581092  RH  033%=      5-min Rain = 0
KDVS 222115Z 34021G27KT 06/M10 A2998 RMK A01 T00551095  RH  033%=      5-min Rain = 0
KDVS 222120Z 35021G26KT 05/M10 A2998 RMK A01 T00541096  RH  033%=      5-min Rain = 0
KDVS 222125Z 35022G29KT 06/M10 A2998 RMK A01 T00551098  RH  032%=      5-min Rain = 0
KDVS 222130Z 35022G28KT 05/M10 A2999 RMK A01 T00531099  RH  032%=      5-min Rain = 0
KDVS 222135Z 35020G28KT 05/M10 A2999 RMK A01 T00541099  RH  032%=      5-min Rain = 0
KDVS 222140Z 36020G27KT 05/M10 A2999 RMK A01 T00531101  RH  032%=      5-min Rain = 0
KDVS 222145Z 36019G29KT 06/M10 A2999 RMK A01 T00561101  RH  031%=      5-min Rain = 0
KDVS 222150Z 36020G27KT 06/M10 A30 RMK A01 T00551103  RH  031%=      5-min Rain = 0
KDVS 222155Z 36021G28KT 05/M11 A30 RMK A01 T00531106  RH  030%=      5-min Rain = 0
KDVS 222200Z 00022G28KT 05/M11 A30 RMK A01 T00531110  RH  029%=      5-min Rain = 0
KDVS 222205Z 36023G30KT 05/M11 A3001 RMK A01 T00511112  RH  030%=      5-min Rain = 0
KDVS 222210Z 35020G27KT 05/M11 A3001 RMK A01 T00521112  RH  029%=      5-min Rain = 0
KDVS 222215Z 35022G29KT 05/M12 A3002 RMK A01 T00511115  RH  029%=      5-min Rain = 0
KDVS 222220Z 34020G27KT 05/M12 A3002 RMK A01 T00501115  RH  029%=      5-min Rain = 0
KDVS 222225Z 36021G26KT 05/M11 A3002 RMK A01 T00501114  RH  029%=      5-min Rain = 0
KDVS 222230Z 36022G28KT 05/M11 A3002 RMK A01 T00481114  RH  030%=      5-min Rain = 0
KDVS 222235Z 35021G29KT 05/M11 A3003 RMK A01 T00461114  RH  030%=      5-min Rain = 0
KDVS 222240Z 36021G26KT 05/M11 A3003 RMK A01 T00471113  RH  030%=      5-min Rain = 0
KDVS 222245Z 35021G30KT 05/M11 A3003 RMK A01 T00481112  RH  030%=      5-min Rain = 0
KDVS 222250Z 35021G30KT 05/M11 A3004 RMK A01 T00471111  RH  031%=      5-min Rain = 0
KDVS 222255Z 36022G28KT 05/M11 A3004 RMK A01 T00461110  RH  031%=      5-min Rain = 0
KDVS 222300Z 36022G30KT 05/M11 A3004 RMK A01 T00461109  RH  031%=      5-min Rain = 0
KDVS 222305Z 36023G30KT 04/M11 A3004 RMK A01 T00441110  RH  031%=      5-min Rain = 0
KDVS 222310Z 36022G29KT 04/M11 A3005 RMK A01 T00441111  RH  031%=      5-min Rain = 0
KDVS 222315Z 35023G30KT 04/M11 A3005 RMK A01 T00431114  RH  031%=      5-min Rain = 0
KDVS 222320Z 35019G27KT 04/M11 A3005 RMK A01 T00421113  RH  031%=      5-min Rain = 0
KDVS 222325Z 00021G27KT 04/M11 A3006 RMK A01 T00411111  RH  032%=      5-min Rain = 0
KDVS 222330Z 00022G30KT 04/M11 A3006 RMK A01 T00381111  RH  033%=      5-min Rain = 0
KDVS 222335Z 00020G27KT 04/M11 A3006 RMK A01 T00351113  RH  033%=      5-min Rain = 0
KDVS 222340Z 35021G29KT 03/M11 A3006 RMK A01 T00321114  RH  033%=      5-min Rain = 0
KDVS 222345Z 35023G31KT 03/M12 A3007 RMK A01 T00301115  RH  034%=      5-min Rain = 0
KDVS 222350Z 36020G26KT 03/M12 A3007 RMK A01 T00281115  RH  034%=      5-min Rain = 0
KDVS 222355Z 36021G27KT 03/M12 A3007 RMK A01 T00261115  RH  034%=      5-min Rain = 0
KDVS 230000Z 00019G27KT 02/M11 A3007 RMK A01 T00241111  RH  036%=      5-min Rain = 0
KDVS 230005Z 00018G24KT 02/M11 A3007 RMK A01 T00221108  RH  037%=      5-min Rain = 0
KDVS 230010Z 00020G26KT 02/M11 A3007 RMK A01 T00211109  RH  037%=      5-min Rain = 0
KDVS 230015Z 00018G25KT 02/M11 A3007 RMK A01 T00201112  RH  037%=      5-min Rain = 0
KDVS 230020Z 00017G24KT 02/M11 A3007 RMK A01 T00181112  RH  037%=      5-min Rain = 0
KDVS 230025Z 00016G22KT 02/M11 A3008 RMK A01 T00171111  RH  038%=      5-min Rain = 0
KDVS 230030Z 00016G22KT 02/M11 A3008 RMK A01 T00151110  RH  038%=      5-min Rain = 0
KDVS 230035Z 00016G21KT 02/M11 A3008 RMK A01 T00151110  RH  039%=      5-min Rain = 0
KDVS 230040Z 00015G20KT 01/M11 A3008 RMK A01 T00141109  RH  039%=      5-min Rain = 0
KDVS 230045Z 00015G21KT 01/M11 A3009 RMK A01 T00141108  RH  040%=      5-min Rain = 0
KDVS 230050Z 00015G20KT 01/M11 A3009 RMK A01 T00141107  RH  040%=      5-min Rain = 0
KDVS 230055Z 36015KT 01/M11 A301 RMK A01 T00141107  RH  040%=      5-min Rain = 0
KDVS 230100Z 00013G19KT 01/M11 A301 RMK A01 T00131107  RH  040%=      5-min Rain = 0
KDVS 230105Z 00014G19KT 01/M11 A3011 RMK A01 T00111106  RH  041%=      5-min Rain = 0
KDVS 230110Z 36013KT 01/M11 A3011 RMK A01 T00121106  RH  041%=      5-min Rain = 0
KDVS 230115Z 36012G17KT 01/M11 A3012 RMK A01 T00111105  RH  042%=      5-min Rain = 0
KDVS 230120Z 36011KT 01/M10 A3012 RMK A01 T00091104  RH  042%=      5-min Rain = 0
KDVS 230125Z 00011KT 01/M10 A3012 RMK A01 T00081103  RH  043%=      5-min Rain = 0
KDVS 230130Z 01010KT 01/M10 A3013 RMK A01 T00071103  RH  044%=      5-min Rain = 0
KDVS 230135Z 01011KT 01/M10 A3013 RMK A01 T00061102  RH  044%=      5-min Rain = 0
KDVS 230140Z 01009KT 01/M10 A3014 RMK A01 T00051101  RH  045%=      5-min Rain = 0
KDVS 230145Z 01010KT 00/M10 A3014 RMK A01 T00041100  RH  045%=      5-min Rain = 0
KDVS 230150Z 00010KT 00/M10 A3014 RMK A01 T00041099  RH  046%=      5-min Rain = 0
KDVS 230155Z 00010KT 00/M10 A3014 RMK A01 T00031098  RH  046%=      5-min Rain = 0
KDVS 230200Z 01009KT 00/M10 A3014 RMK A01 T00021098  RH  047%=      5-min Rain = 0
KDVS 230205Z 01009KT M00/M10 A3014 RMK A01 T10011097  RH  048%=      5-min Rain = 0
KDVS 230210Z 02008KT M00/M10 A3015 RMK A01 T10031097  RH  049%=      5-min Rain = 0
KDVS 230215Z 02007KT M01/M10 A3015 RMK A01 T10061097  RH  050%=      5-min Rain = 0
KDVS 230220Z 02008KT M01/M10 A3015 RMK A01 T10071096  RH  051%=      5-min Rain = 0
KDVS 230225Z 02008KT M01/M10 A3015 RMK A01 T10071095  RH  051%=      5-min Rain = 0
KDVS 230230Z 02007KT M01/M10 A3016 RMK A01 T10091095  RH  052%=      5-min Rain = 0
KDVS 230235Z 02007KT M01/M10 A3016 RMK A01 T10121095  RH  053%=      5-min Rain = 0
KDVS 230240Z 02006KT M01/M09 A3016 RMK A01 T10141094  RH  054%=      5-min Rain = 0
KDVS 230245Z 02006KT M02/M09 A3016 RMK A01 T10161094  RH  055%=      5-min Rain = 0
KDVS 230250Z 02007KT M02/M09 A3016 RMK A01 T10181093  RH  056%=      5-min Rain = 0
KDVS 230255Z 02006KT M02/M09 A3017 RMK A01 T10191093  RH  057%=      5-min Rain = 0
KDVS 230300Z 02005KT M02/M10 A3017 RMK A01 T10221095  RH  057%=      5-min Rain = 0
KDVS 230305Z 02006KT M03/M10 A3017 RMK A01 T10261095  RH  059%=      5-min Rain = 0
KDVS 230310Z 01006KT M03/M10 A3017 RMK A01 T10281095  RH  060%=      5-min Rain = 0
KDVS 230315Z 01006KT M03/M10 A3018 RMK A01 T10301095  RH  061%=      5-min Rain = 0
KDVS 230320Z 00005KT M03/M09 A3018 RMK A01 T10311094  RH  061%=      5-min Rain = 0
KDVS 230325Z 36005KT M03/M09 A3018 RMK A01 T10301094  RH  061%=      5-min Rain = 0
KDVS 230330Z 36005KT M03/M09 A3018 RMK A01 T10301094  RH  061%=      5-min Rain = 0
KDVS 230335Z 00006KT M03/M09 A3018 RMK A01 T10311094  RH  062%=      5-min Rain = 0
KDVS 230340Z 00006KT M03/M09 A3019 RMK A01 T10311093  RH  062%=      5-min Rain = 0
KDVS 230345Z 35005KT M03/M09 A3019 RMK A01 T10311094  RH  062%=      5-min Rain = 0
KDVS 230350Z 34005KT M03/M10 A3019 RMK A01 T10341096  RH  062%=      5-min Rain = 0
KDVS 230355Z 32004KT M04/M10 A3019 RMK A01 T10381098  RH  063%=      5-min Rain = 0
KDVS 230400Z 31005KT M04/M10 A3019 RMK A01 T10401098  RH  064%=      5-min Rain = 0
KDVS 230405Z 31005KT M04/M10 A3019 RMK A01 T10391096  RH  064%=      5-min Rain = 0
KDVS 230410Z 32005KT M04/M10 A3019 RMK A01 T10391097  RH  064%=      5-min Rain = 0
KDVS 230415Z 32006KT M04/M10 A3019 RMK A01 T10411098  RH  064%=      5-min Rain = 0
KDVS 230420Z 31007KT M04/M10 A302 RMK A01 T10441098  RH  066%=      5-min Rain = 0
KDVS 230425Z 29008KT M04/M10 A302 RMK A01 T10431096  RH  066%=      5-min Rain = 0
KDVS 230430Z 28008KT M04/M10 A302 RMK A01 T10431096  RH  066%=      5-min Rain = 0
KDVS 230435Z 29008KT M05/M10 A302 RMK A01 T10451098  RH  066%=      5-min Rain = 0
KDVS 230440Z 29008KT M05/M10 A302 RMK A01 T10471098  RH  067%=      5-min Rain = 0
KDVS 230445Z 29007KT M05/M10 A302 RMK A01 T10491099  RH  067%=      5-min Rain = 0
KDVS 230450Z 30006KT M05/M10 A302 RMK A01 T10491100  RH  067%=      5-min Rain = 0
KDVS 230455Z 30007KT M05/M10 A3021 RMK A01 T10491100  RH  067%=      5-min Rain = 0
KDVS 230500Z 31007KT M05/M10 A3021 RMK A01 T10461097  RH  067%=      5-min Rain = 0
KDVS 230505Z 31007KT M05/M10 A3021 RMK A01 T10461098  RH  067%=      5-min Rain = 0
KDVS 230510Z 31007KT M05/M10 A3021 RMK A01 T10461097  RH  067%=      5-min Rain = 0
KDVS 230515Z 32006KT M05/M10 A3021 RMK A01 T10451096  RH  067%=      5-min Rain = 0
KDVS 230520Z 32006KT M04/M10 A3021 RMK A01 T10411095  RH  066%=      5-min Rain = 0
KDVS 230525Z 33006KT M04/M10 A3021 RMK A01 T10371095  RH  064%=      5-min Rain = 0
KDVS 230530Z 33006KT M04/M10 A3021 RMK A01 T10361096  RH  063%=      5-min Rain = 0
KDVS 230535Z 32005KT M04/M10 A3022 RMK A01 T10371098  RH  062%=      5-min Rain = 0
KDVS 230540Z 32006KT M04/M10 A3022 RMK A01 T10391098  RH  063%=      5-min Rain = 0
KDVS 230545Z 32006KT M04/M10 A3022 RMK A01 T10421100  RH  064%=      5-min Rain = 0
KDVS 230550Z 31006KT M05/M10 A3022 RMK A01 T10451101  RH  065%=      5-min Rain = 0
KDVS 230555Z 31006KT M05/M10 A3022 RMK A01 T10471101  RH  066%=      5-min Rain = 0

Page generated in 0.0255 seconds.